Time;durP1;ratioP1;P1;durP2;ratioP2;P2;SDS_P1;SDS_P2;PMS_P1;PMS_P2;Temp;Humidity;BMP_temperature;BMP_pressure;BME280_temperature;BME280_humidity;BME280_pressure;Samples;Min_cycle;Max_cycle;Signal;HPM_P1;HPM_P2
2023/05/08 00:01:17;;;;;;;7.30;2.40;;;;;;;10.11;76.47;102135.91;5095532;28;20946;-82
2023/05/08 00:03:44;;;;;;;6.97;2.40;;;;;;;10.15;76.70;102130.00;5099641;28;20469;-83
2023/05/08 00:06:11;;;;;;;8.13;2.17;;;;;;;10.14;77.02;102131.03;5100836;28;20908;-84
2023/05/08 00:08:39;;;;;;;6.00;2.33;;;;;;;10.11;76.58;102124.28;5102114;28;20495;-83
2023/05/08 00:11:05;;;;;;;5.70;1.70;;;;;;;10.07;77.39;102125.88;5104910;28;20532;-82
2023/05/08 00:13:32;;;;;;;7.53;2.90;;;;;;;10.06;77.29;102125.06;5098366;28;20500;-82
2023/05/08 00:15:59;;;;;;;8.30;2.70;;;;;;;9.98;77.66;102124.72;5099029;28;20445;-82
2023/05/08 00:18:26;;;;;;;5.97;2.30;;;;;;;9.97;77.06;102133.91;5097863;28;20433;-82
2023/05/08 00:20:53;;;;;;;9.37;3.40;;;;;;;9.96;77.02;102133.09;5098287;28;20448;-82
2023/05/08 00:23:20;;;;;;;7.10;2.43;;;;;;;9.86;76.90;102128.41;5098332;28;20552;-80
2023/05/08 00:25:48;;;;;;;11.50;3.00;;;;;;;9.80;77.67;102121.31;5098498;28;20545;-81
2023/05/08 00:28:15;;;;;;;6.93;2.43;;;;;;;9.76;78.44;102139.16;5098122;28;20504;-81
2023/05/08 00:30:42;;;;;;;7.70;2.87;;;;;;;9.73;79.32;102131.53;5098628;28;20961;-82
2023/05/08 00:33:10;;;;;;;6.53;2.67;;;;;;;9.74;79.47;102133.19;5097311;28;20496;-82
2023/05/08 00:35:36;;;;;;;6.53;2.73;;;;;;;9.75;80.61;102129.41;5097219;28;20445;-82
2023/05/08 00:38:03;;;;;;;6.73;2.40;;;;;;;9.73;81.13;102134.25;5097473;28;20874;-82
2023/05/08 00:40:30;;;;;;;8.23;3.10;;;;;;;9.74;80.24;102132.34;5096964;28;20665;-82
2023/05/08 00:42:58;;;;;;;7.67;3.00;;;;;;;9.71;80.88;102146.41;5096967;28;20999;-82
2023/05/08 00:45:25;;;;;;;8.03;2.87;;;;;;;9.75;80.58;102136.72;5097602;28;20528;-82
2023/05/08 00:47:52;;;;;;;8.67;3.40;;;;;;;9.71;81.49;102144.53;5097248;28;20450;-82
2023/05/08 00:50:19;;;;;;;6.80;2.40;;;;;;;9.76;81.35;102149.16;5097202;28;20480;-82
2023/05/08 00:52:46;;;;;;;11.20;3.33;;;;;;;9.73;81.49;102147.78;5097083;28;20855;-82
2023/05/08 00:55:13;;;;;;;6.23;2.23;;;;;;;9.73;81.60;102146.97;5096041;28;20906;-82
2023/05/08 00:57:40;;;;;;;6.33;2.23;;;;;;;9.73;81.68;102152.38;5096195;28;20791;-82
2023/05/08 01:00:10;;;;;;;8.03;2.73;;;;;;;9.71;81.33;102151.81;5096139;28;20486;-82
2023/05/08 01:02:37;;;;;;;12.80;3.17;;;;;;;9.62;82.30;102145.25;5096477;28;20516;-82
2023/05/08 01:05:03;;;;;;;7.27;3.03;;;;;;;9.58;82.69;102156.56;5094968;28;21057;-81
2023/05/08 01:07:30;;;;;;;11.10;2.63;;;;;;;9.52;83.15;102152.19;5094944;28;20460;-82
2023/05/08 01:09:57;;;;;;;6.90;3.00;;;;;;;9.53;82.98;102147.59;5094702;28;20997;-79
2023/05/08 01:12:30;;;;;;;7.80;2.97;;;;;;;9.53;83.22;102161.94;5096451;28;20441;-79
2023/05/08 01:15:06;;;;;;;7.30;2.80;;;;;;;9.45;83.53;102158.88;5097455;28;20535;-80
2023/05/08 01:17:54;;;;;;;8.10;2.80;;;;;;;9.46;83.63;102149.66;5096722;28;20781;-79
2023/05/08 01:20:39;;;;;;;9.57;3.23;;;;;;;9.43;83.19;102152.88;5096998;28;20427;-79
2023/05/08 01:23:44;;;;;;;7.33;2.70;;;;;;;9.43;82.63;102148.31;5097007;28;20476;-82
2023/05/08 01:26:40;;;;;;;7.90;3.10;;;;;;;9.44;82.92;102149.13;5014636;28;21037;-82
2023/05/08 01:29:43;;;;;;;7.57;3.10;;;;;;;9.37;82.98;102153.91;5014763;28;20542;-82
2023/05/08 01:32:19;;;;;;;9.17;3.00;;;;;;;9.33;83.58;102146.28;5014763;28;20897;-82
2023/05/08 01:34:57;;;;;;;8.27;3.40;;;;;;;9.34;83.28;102155.22;5014536;28;20832;-82
2023/05/08 01:37:30;;;;;;;7.20;3.30;;;;;;;9.32;82.68;102155.47;5014486;28;20455;-82
2023/05/08 01:40:05;;;;;;;7.47;3.40;;;;;;;9.29;81.87;102160.56;5014489;28;20432;-82
2023/05/08 01:42:43;;;;;;;9.40;3.50;;;;;;;9.25;81.22;102160.28;5014732;28;20452;-82
2023/05/08 01:45:16;;;;;;;6.67;2.97;;;;;;;9.14;81.99;102160.41;5014380;28;20945;-82
2023/05/08 01:47:49;;;;;;;12.73;2.93;;;;;;;9.09;82.10;102158.47;5014518;28;20420;-82
2023/05/08 01:50:22;;;;;;;7.70;3.40;;;;;;;9.06;82.08;102158.97;5014546;28;20471;-82
2023/05/08 01:52:51;;;;;;;7.87;3.40;;;;;;;9.00;82.38;102160.78;5014562;28;20523;-82
2023/05/08 01:55:35;;;;;;;7.80;3.17;;;;;;;9.01;82.66;102151.59;5014570;28;20437;-82
2023/05/08 01:58:07;;;;;;;8.53;3.80;;;;;;;9.03;82.84;102156.75;5086280;28;21019;-82
2023/05/08 02:00:33;;;;;;;8.37;3.60;;;;;;;9.06;83.69;102158.97;5097049;28;20516;-82
2023/05/08 02:03:05;;;;;;;9.70;3.03;;;;;;;9.05;83.35;102158.16;5097383;28;20524;-82
2023/05/08 02:05:34;;;;;;;7.23;3.00;;;;;;;9.02;83.32;102153.22;5096623;28;20500;-82
2023/05/08 02:08:02;;;;;;;8.07;3.53;;;;;;;9.03;83.01;102154.88;5096822;28;20531;-82
2023/05/08 02:10:29;;;;;;;9.53;3.40;;;;;;;8.97;83.07;102160.47;5097049;28;20523;-82
2023/05/08 02:12:59;;;;;;;8.17;3.00;;;;;;;8.94;83.62;102160.97;5096247;28;20444;-82
2023/05/08 02:15:27;;;;;;;11.67;3.93;;;;;;;8.90;83.73;102160.66;5096695;28;20483;-82
2023/05/08 02:17:55;;;;;;;10.20;3.97;;;;;;;8.92;83.63;102152.31;5096368;28;20543;-82
2023/05/08 02:20:23;;;;;;;12.20;3.93;;;;;;;8.91;83.81;102150.66;5097159;28;20485;-82
2023/05/08 02:22:51;;;;;;;9.93;3.43;;;;;;;8.92;83.83;102155.81;5097143;28;21022;-82
2023/05/08 02:25:19;;;;;;;8.00;3.63;;;;;;;8.89;83.83;102156.31;5097372;28;20571;-84
2023/05/08 02:27:48;;;;;;;11.57;3.93;;;;;;;8.94;83.82;102159.09;5098132;28;20479;-83
2023/05/08 02:30:17;;;;;;;8.40;3.37;;;;;;;8.90;83.85;102160.66;5097672;28;20448;-83
2023/05/08 02:32:45;;;;;;;8.30;3.00;;;;;;;8.91;84.16;102167.69;5098329;28;20515;-83
2023/05/08 02:35:13;;;;;;;9.70;3.53;;;;;;;8.95;83.39;102159.91;5098060;28;20486;-82
2023/05/08 02:37:44;;;;;;;9.50;3.87;;;;;;;8.94;83.81;102158.25;5098295;28;20429;-82
2023/05/08 02:40:12;;;;;;;9.77;2.90;;;;;;;8.92;83.91;102160.41;5101123;28;20496;-81
2023/05/08 02:42:40;;;;;;;8.97;3.53;;;;;;;8.86;83.15;102151.44;5099149;28;20433;-83
2023/05/08 02:45:08;;;;;;;10.00;3.97;;;;;;;8.84;83.39;102154.34;5095986;28;20556;-82
2023/05/08 02:47:42;;;;;;;9.83;3.63;;;;;;;8.80;84.02;102155.13;5095996;28;20516;-82
2023/05/08 02:50:17;;;;;;;9.17;3.70;;;;;;;8.78;83.92;102160.78;5095240;28;20462;-82
2023/05/08 02:52:48;;;;;;;9.27;4.10;;;;;;;8.74;83.96;102156.94;5095806;28;20946;-83
2023/05/08 02:55:28;;;;;;;7.80;3.50;;;;;;;8.67;82.92;102158.19;5095368;28;20938;-82
2023/05/08 02:58:07;;;;;;;9.50;4.07;;;;;;;8.72;82.35;102159.09;5095753;28;20474;-82
2023/05/08 03:00:41;;;;;;;9.40;4.20;;;;;;;8.70;82.20;102158.50;5095335;28;20505;-82
2023/05/08 03:03:13;;;;;;;7.17;3.37;;;;;;;8.64;81.77;102147.88;5095496;28;20520;-82
2023/05/08 03:05:47;;;;;;;7.23;3.13;;;;;;;8.57;81.79;102159.66;5095170;28;20475;-82
2023/05/08 03:08:19;;;;;;;12.53;4.07;;;;;;;8.55;81.96;102155.59;5094859;28;20428;-82
2023/05/08 03:10:51;;;;;;;11.30;4.30;;;;;;;8.52;82.14;102153.38;5097678;28;20429;-82
2023/05/08 03:13:20;;;;;;;8.83;3.60;;;;;;;8.54;82.87;102156.63;5098494;28;20535;-80
2023/05/08 03:15:54;;;;;;;9.83;3.67;;;;;;;8.49;83.48;102159.28;5098359;28;20475;-79
2023/05/08 03:18:25;;;;;;;8.10;3.37;;;;;;;8.53;83.56;102157.72;5098067;28;20551;-80
2023/05/08 03:20:55;;;;;;;8.50;4.10;;;;;;;8.51;83.80;102152.56;5097759;28;20452;-79
2023/05/08 03:23:24;;;;;;;8.50;3.83;;;;;;;8.54;83.39;102157.50;5097180;28;20966;-79
2023/05/08 03:25:52;;;;;;;9.00;4.00;;;;;;;8.49;84.45;102160.09;5097114;28;20580;-79
2023/05/08 03:28:21;;;;;;;8.63;3.63;;;;;;;8.57;83.46;102156.16;5098754;28;20433;-80
2023/05/08 03:30:49;;;;;;;8.43;3.50;;;;;;;8.61;84.05;102154.59;5098900;28;20436;-80
2023/05/08 03:33:17;;;;;;;11.20;4.07;;;;;;;8.60;84.33;102163.78;5099374;28;20550;-80
2023/05/08 03:35:46;;;;;;;10.80;3.97;;;;;;;8.62;84.03;102161.63;5099693;28;20444;-80
2023/05/08 03:38:13;;;;;;;11.23;3.73;;;;;;;8.54;84.18;102159.34;5098715;28;20906;-79
2023/05/08 03:40:42;;;;;;;9.23;4.00;;;;;;;8.51;84.44;102154.47;5098347;28;20531;-80
2023/05/08 03:43:11;;;;;;;10.93;3.73;;;;;;;8.52;84.67;102165.00;5098490;28;20468;-80
2023/05/08 03:45:40;;;;;;;7.40;3.37;;;;;;;8.49;84.71;102159.28;5097830;28;20507;-78
2023/05/08 03:48:09;;;;;;;8.40;3.90;;;;;;;8.51;84.56;102163.38;5097865;28;20440;-78
2023/05/08 03:50:37;;;;;;;8.20;2.80;;;;;;;8.50;84.58;102163.59;5097693;28;20444;-79
2023/05/08 03:53:04;;;;;;;10.60;4.40;;;;;;;8.50;84.92;102167.16;5097643;28;20789;-79
2023/05/08 03:55:32;;;;;;;7.67;2.83;;;;;;;8.51;85.16;102165.25;5097972;28;20531;-78
2023/05/08 03:58:08;;;;;;;9.63;4.33;;;;;;;8.52;84.69;102166.88;5097828;28;20527;-78
2023/05/08 04:00:47;;;;;;;10.80;3.40;;;;;;;8.46;84.75;102163.31;5097645;28;20481;-78
2023/05/08 04:03:22;;;;;;;10.00;4.63;;;;;;;8.45;84.29;102168.94;5097468;28;20467;-79
2023/05/08 04:05:56;;;;;;;8.60;3.83;;;;;;;8.45;85.12;102163.53;5097244;28;20503;-79
2023/05/08 04:08:27;;;;;;;10.40;3.83;;;;;;;8.43;84.72;102166.50;5097068;28;20444;-78
2023/05/08 04:11:03;;;;;;;8.13;3.87;;;;;;;8.47;84.14;102158.72;5097139;28;20785;-79
2023/05/08 04:13:36;;;;;;;11.03;3.70;;;;;;;8.47;83.34;102172.22;5097165;28;20468;-79
2023/05/08 04:16:07;;;;;;;8.93;3.90;;;;;;;8.50;82.86;102164.44;5097260;28;20528;-79
2023/05/08 04:18:37;;;;;;;10.67;4.57;;;;;;;8.48;82.42;102163.84;5097949;28;20550;-78
2023/05/08 04:21:08;;;;;;;9.57;3.47;;;;;;;8.51;82.70;102162.56;5095488;28;20436;-78
2023/05/08 04:23:38;;;;;;;10.17;3.90;;;;;;;8.44;83.92;102172.72;5095987;28;20893;-78
2023/05/08 04:26:06;;;;;;;9.80;3.87;;;;;;;8.45;82.84;102171.63;5095705;28;20534;-78
2023/05/08 04:28:35;;;;;;;8.30;3.80;;;;;;;8.49;83.20;102170.06;5094963;28;20437;-78
2023/05/08 04:31:03;;;;;;;13.00;3.50;;;;;;;8.52;84.40;102166.88;5096202;28;20555;-78
2023/05/08 04:33:30;;;;;;;9.77;3.40;;;;;;;8.56;84.76;102178.84;5096236;28;20539;-78
2023/05/08 04:36:00;;;;;;;8.87;3.97;;;;;;;8.61;84.49;102178.91;5097541;28;20489;-78
2023/05/08 04:38:27;;;;;;;12.80;3.90;;;;;;;8.70;83.56;102190.09;5097007;28;20472;-79
2023/05/08 04:40:54;;;;;;;14.20;4.77;;;;;;;8.67;83.56;102186.00;5096240;28;20445;-78
2023/05/08 04:43:21;;;;;;;10.73;4.23;;;;;;;8.71;84.43;102189.84;5097238;28;20904;-80
2023/05/08 04:45:49;;;;;;;12.17;4.97;;;;;;;8.77;83.71;102191.56;5097269;28;20496;-80
2023/05/08 04:48:16;;;;;;;8.70;3.50;;;;;;;8.86;83.37;102199.25;5097344;28;21010;-80
2023/05/08 04:50:42;;;;;;;7.40;3.00;;;;;;;8.86;83.03;102202.75;5097349;28;20529;-80
2023/05/08 04:53:09;;;;;;;9.57;3.97;;;;;;;8.92;83.07;102206.34;5097376;28;20567;-80
2023/05/08 04:55:35;;;;;;;8.53;3.50;;;;;;;8.95;82.21;102211.25;5097099;28;20508;-81
2023/05/08 04:58:02;;;;;;;8.67;3.30;;;;;;;8.94;81.33;102201.50;5097100;28;20524;-80
2023/05/08 05:00:29;;;;;;;7.30;3.17;;;;;;;9.00;81.63;102212.13;5097386;28;20468;-79
2023/05/08 05:02:57;;;;;;;9.93;3.80;;;;;;;9.03;81.45;102213.50;5096936;28;20444;-79
2023/05/08 05:05:23;;;;;;;8.27;3.43;;;;;;;9.09;81.34;102207.13;5096603;28;20978;-79
2023/05/08 05:07:50;;;;;;;10.60;4.10;;;;;;;9.21;80.80;102210.53;5096837;28;20571;-79
2023/05/08 05:10:17;;;;;;;6.80;2.60;;;;;;;9.26;79.47;102224.09;5096375;28;20440;-80
2023/05/08 05:12:43;;;;;;;8.43;2.97;;;;;;;9.24;78.91;102220.00;5096440;28;20994;-80
2023/05/08 05:15:11;;;;;;;7.63;3.13;;;;;;;9.37;78.66;102219.63;5096336;28;20832;-80
2023/05/08 05:17:37;;;;;;;12.83;3.60;;;;;;;9.41;79.05;102219.94;5096498;28;20432;-79
2023/05/08 05:20:07;;;;;;;7.00;3.23;;;;;;;9.43;79.72;102225.91;5096241;28;20982;-79
2023/05/08 05:22:34;;;;;;;9.13;3.70;;;;;;;9.44;78.40;102220.25;5096645;28;20531;-79
2023/05/08 05:25:01;;;;;;;9.40;4.07;;;;;;;9.44;79.40;102222.97;5096101;28;20479;-79
2023/05/08 05:27:27;;;;;;;9.40;2.77;;;;;;;9.51;78.40;102233.56;5096240;28;20869;-80
2023/05/08 05:29:54;;;;;;;7.60;3.43;;;;;;;9.55;77.99;102227.41;5096146;28;20908;-79
2023/05/08 05:32:21;;;;;;;7.43;3.23;;;;;;;9.59;77.89;102233.13;5096046;28;20531;-80
2023/05/08 05:34:47;;;;;;;9.07;2.97;;;;;;;9.62;77.27;102229.09;5096412;28;20492;-80
2023/05/08 05:37:15;;;;;;;7.70;3.40;;;;;;;9.65;77.54;102237.53;5095173;28;20536;-80
2023/05/08 05:39:42;;;;;;;9.33;3.20;;;;;;;9.66;76.91;102233.75;5094873;28;20444;-79
2023/05/08 05:42:08;;;;;;;8.80;3.10;;;;;;;9.68;76.76;102237.00;5094718;28;20442;-80
2023/05/08 05:44:35;;;;;;;6.70;2.40;;;;;;;9.75;76.82;102237.66;5096364;28;20534;-79
2023/05/08 05:47:03;;;;;;;8.70;3.00;;;;;;;9.81;77.36;102247.44;5096232;28;20495;-80
2023/05/08 05:49:30;;;;;;;7.37;3.00;;;;;;;9.89;77.23;102246.16;5096554;28;20449;-79
2023/05/08 05:51:57;;;;;;;10.00;3.80;;;;;;;9.97;76.97;102244.91;5096188;28;20531;-79
2023/05/08 05:54:25;;;;;;;11.07;4.07;;;;;;;9.99;76.12;102248.16;5095746;28;20551;-78
2023/05/08 05:56:51;;;;;;;7.10;2.63;;;;;;;10.08;75.93;102239.31;5096831;28;20428;-79
2023/05/08 05:59:18;;;;;;;7.83;3.13;;;;;;;10.14;76.22;102234.78;5095804;28;20519;-79
2023/05/08 06:01:45;;;;;;;7.73;2.73;;;;;;;10.16;76.30;102243.44;5095893;28;20448;-79
2023/05/08 06:04:12;;;;;;;10.63;2.70;;;;;;;10.24;75.34;102242.16;5096118;28;20480;-80
2023/05/08 06:06:38;;;;;;;8.67;3.23;;;;;;;10.32;74.76;102253.38;5095328;28;20487;-79
2023/05/08 06:09:05;;;;;;;8.60;3.00;;;;;;;10.38;72.51;102240.69;5096228;28;20430;-80
2023/05/08 06:11:33;;;;;;;7.37;3.07;;;;;;;10.39;71.08;102246.91;5096924;28;20443;-80
2023/05/08 06:14:00;;;;;;;8.10;2.20;;;;;;;10.43;72.25;102250.75;5097380;28;20547;-80
2023/05/08 06:16:29;;;;;;;7.30;2.10;;;;;;;10.50;71.28;102251.34;5097129;28;20498;-80
2023/05/08 06:18:55;;;;;;;6.40;2.10;;;;;;;10.56;70.90;102255.72;5097572;28;20429;-80
2023/05/08 06:21:22;;;;;;;6.70;2.30;;;;;;;10.61;69.94;102251.16;5098072;28;20432;-80
2023/05/08 06:23:49;;;;;;;6.80;2.20;;;;;;;10.66;68.83;102250.38;5096639;28;20552;-79
2023/05/08 06:26:15;;;;;;;6.33;2.47;;;;;;;10.70;68.92;102259.63;5096701;28;20541;-79
2023/05/08 06:28:43;;;;;;;6.23;2.00;;;;;;;10.82;67.80;102243.97;5095637;28;20936;-79
2023/05/08 06:31:10;;;;;;;7.03;2.30;;;;;;;10.91;66.98;102254.34;5096791;28;20448;-80
2023/05/08 06:33:36;;;;;;;7.37;2.33;;;;;;;10.96;67.26;102257.09;5096377;28;20555;-80
2023/05/08 06:36:04;;;;;;;6.60;2.27;;;;;;;11.00;64.37;102263.63;5095806;28;20456;-79
2023/05/08 06:38:31;;;;;;;6.63;1.90;;;;;;;11.04;63.99;102262.00;5097005;28;20811;-79
2023/05/08 06:40:58;;;;;;;7.60;2.20;;;;;;;11.10;63.34;102260.94;5098322;28;20527;-80
2023/05/08 06:43:25;;;;;;;6.07;2.10;;;;;;;11.13;62.28;102252.28;5097608;28;20476;-78
2023/05/08 06:45:52;;;;;;;8.87;2.83;;;;;;;11.21;62.94;102256.41;5102239;28;20437;-80
2023/05/08 06:48:19;;;;;;;7.43;2.30;;;;;;;11.27;62.39;102252.63;5101291;28;20487;-79
2023/05/08 06:50:46;;;;;;;6.27;1.70;;;;;;;11.29;62.57;102256.72;5100500;28;20497;-80
2023/05/08 06:53:16;;;;;;;6.40;2.00;;;;;;;11.35;61.95;102261.06;5103014;28;20955;-80
2023/05/08 06:55:44;;;;;;;6.70;1.90;;;;;;;11.32;62.21;102261.59;5105280;28;20534;-81
2023/05/08 06:58:11;;;;;;;5.77;1.83;;;;;;;11.41;59.67;102253.78;5102288;28;21003;-81
2023/05/08 07:00:38;;;;;;;8.00;2.03;;;;;;;11.38;59.63;102262.47;5102265;28;20999;-78
2023/05/08 07:03:06;;;;;;;5.40;1.60;;;;;;;11.42;59.75;102257.28;5100949;28;20523;-80
2023/05/08 07:05:35;;;;;;;5.27;1.57;;;;;;;11.49;60.03;102268.72;5101628;28;20475;-79
2023/05/08 07:08:02;;;;;;;6.03;1.80;;;;;;;11.62;58.48;102266.34;5102384;28;20504;-80
2023/05/08 07:10:28;;;;;;;7.10;1.60;;;;;;;11.64;57.99;102268.78;5102345;28;20444;-80
2023/05/08 07:12:55;;;;;;;5.70;1.60;;;;;;;11.73;57.31;102267.19;5103009;28;20527;-79
2023/05/08 07:15:22;;;;;;;5.83;1.90;;;;;;;11.78;58.82;102259.06;5101520;28;20444;-81
2023/05/08 07:17:49;;;;;;;9.60;2.27;;;;;;;11.91;58.67;102257.78;5101628;28;20479;-79
2023/05/08 07:20:19;;;;;;;7.20;2.00;;;;;;;11.94;57.49;102259.13;5102061;28;20428;-80
2023/05/08 07:22:50;;;;;;;6.80;2.43;;;;;;;11.99;57.06;102265.38;5101513;28;20452;-80
2023/05/08 07:25:17;;;;;;;6.00;2.10;;;;;;;12.02;56.79;102264.84;5101350;28;20523;-80
2023/05/08 07:27:47;;;;;;;7.57;2.00;;;;;;;12.09;56.26;102264.59;5100988;28;21051;-80
2023/05/08 07:30:14;;;;;;;6.10;1.93;;;;;;;12.20;55.81;102254.53;5101682;28;20409;-79
2023/05/08 07:32:41;;;;;;;5.27;1.60;;;;;;;12.25;56.37;102257.25;5100089;28;20599;-78
2023/05/08 07:35:11;;;;;;;6.17;1.90;;;;;;;12.35;56.06;102260.81;5098936;28;20448;-79
2023/05/08 07:37:39;;;;;;;9.00;2.17;;;;;;;12.44;55.09;102254.81;5098439;28;20447;-79
2023/05/08 07:40:07;;;;;;;7.17;1.87;;;;;;;12.47;55.32;102251.56;5097324;28;20865;-77
2023/05/08 07:42:39;;;;;;;6.37;1.63;;;;;;;12.54;54.76;102258.34;5096773;28;20447;-78
2023/05/08 07:45:08;;;;;;;5.53;1.40;;;;;;;12.67;53.97;102267.03;5097426;28;20469;-79
2023/05/08 07:47:35;;;;;;;5.37;1.70;;;;;;;12.70;53.54;102264.56;5097670;28;20553;-79
2023/05/08 07:50:02;;;;;;;13.17;2.87;;;;;;;12.76;52.43;102258.06;5097575;28;20476;-79
2023/05/08 07:52:29;;;;;;;6.00;1.60;;;;;;;12.80;52.73;102255.59;5097480;28;20531;-79
2023/05/08 07:54:57;;;;;;;7.10;1.97;;;;;;;12.92;52.13;102263.44;5098273;28;20472;-79
2023/05/08 07:57:24;;;;;;;7.10;1.47;;;;;;;12.97;51.65;102263.44;5095838;28;20848;-77
2023/05/08 07:59:51;;;;;;;6.53;1.93;;;;;;;13.04;51.26;102255.81;5097024;28;20451;-77
2023/05/08 08:02:17;;;;;;;5.70;1.70;;;;;;;13.09;51.01;102253.88;5098451;28;20591;-78
2023/05/08 08:04:44;;;;;;;5.50;1.80;;;;;;;13.12;50.71;102253.34;5098581;28;20467;-78
2023/05/08 08:07:11;;;;;;;5.87;1.77;;;;;;;13.22;51.60;102266.13;5097701;28;20476;-77
2023/05/08 08:09:37;;;;;;;7.07;1.87;;;;;;;13.26;49.84;102259.03;5097163;28;20532;-78
2023/05/08 08:12:05;;;;;;;6.50;1.83;;;;;;;13.21;49.28;102256.31;5096665;28;20517;-77
2023/05/08 08:14:33;;;;;;;5.80;1.73;;;;;;;13.24;49.77;102258.50;5095150;28;20526;-77
2023/05/08 08:17:00;;;;;;;9.57;2.00;;;;;;;13.24;50.58;102258.50;5095841;28;20443;-77
2023/05/08 08:19:26;;;;;;;5.50;1.77;;;;;;;13.34;50.26;102258.47;5095252;28;20951;-76
2023/05/08 08:21:53;;;;;;;7.60;1.77;;;;;;;13.38;50.28;102254.09;5095366;28;20440;-77
2023/05/08 08:24:19;;;;;;;7.37;1.60;;;;;;;13.40;50.24;102251.09;5095327;28;20468;-76
2023/05/08 08:26:46;;;;;;;6.40;2.30;;;;;;;13.53;50.37;102255.13;5094953;28;20935;-75
2023/05/08 08:29:14;;;;;;;5.83;1.87;;;;;;;13.54;51.17;102251.28;5095132;28;20452;-76
2023/05/08 08:31:41;;;;;;;6.27;2.10;;;;;;;13.67;50.09;102253.41;5095230;28;20502;-76
2023/05/08 08:34:08;;;;;;;5.37;1.77;;;;;;;13.78;50.53;102257.72;5094728;28;20909;-76
2023/05/08 08:36:34;;;;;;;5.70;1.50;;;;;;;13.88;49.71;102252.19;5094714;28;20873;-75
2023/05/08 08:39:01;;;;;;;9.00;1.83;;;;;;;13.94;47.76;102243.97;5095577;28;20531;-76
2023/05/08 08:41:28;;;;;;;5.80;1.90;;;;;;;13.96;48.45;102261.69;5094679;28;20531;-76
2023/05/08 08:43:54;;;;;;;6.20;1.70;;;;;;;13.92;47.73;102263.34;5094738;28;20472;-76
2023/05/08 08:46:25;;;;;;;6.30;1.80;;;;;;;14.00;47.46;102254.56;5094897;28;20537;-76
2023/05/08 08:48:55;;;;;;;5.70;1.77;;;;;;;14.01;48.05;102247.22;5094817;28;20472;-75
2023/05/08 08:51:27;;;;;;;7.57;2.20;;;;;;;14.07;47.91;102254.25;5094582;28;20429;-75
2023/05/08 08:54:04;;;;;;;5.23;1.30;;;;;;;14.18;47.01;102238.66;5094826;28;20475;-76
2023/05/08 08:56:32;;;;;;;5.67;1.50;;;;;;;14.19;47.76;102246.53;5095245;28;20427;-76
2023/05/08 08:59:00;;;;;;;6.47;1.83;;;;;;;14.32;46.72;102237.72;5094677;28;21008;-75
2023/05/08 09:01:30;;;;;;;5.83;1.20;;;;;;;14.41;47.17;102245.28;5095066;28;20532;-76
2023/05/08 09:03:58;;;;;;;5.37;1.37;;;;;;;14.48;46.80;102240.31;5094889;28;20460;-76
2023/05/08 09:06:26;;;;;;;5.70;2.10;;;;;;;14.56;46.30;102245.16;5094740;28;20444;-77
2023/05/08 09:08:55;;;;;;;5.90;1.70;;;;;;;14.60;47.63;102238.03;5094161;28;20986;-76
2023/05/08 09:11:22;;;;;;;5.63;1.20;;;;;;;14.68;45.88;102247.50;5094724;28;20542;-76
2023/05/08 09:13:48;;;;;;;6.40;1.63;;;;;;;14.71;46.18;102236.84;5094226;28;21039;-77
2023/05/08 09:16:15;;;;;;;7.87;1.93;;;;;;;14.81;46.16;102242.19;5094676;28;20473;-77
2023/05/08 09:18:43;;;;;;;5.27;1.40;;;;;;;14.92;45.22;102247.53;5094195;28;20822;-76
2023/05/08 09:21:10;;;;;;;5.50;1.60;;;;;;;15.00;45.18;102246.91;5094234;28;20513;-77
2023/05/08 09:23:36;;;;;;;8.43;1.90;;;;;;;15.11;46.31;102240.22;5094309;28;20465;-77
2023/05/08 09:26:03;;;;;;;13.70;1.80;;;;;;;15.12;45.37;102241.84;5094635;28;20501;-77
2023/05/08 09:28:30;;;;;;;5.23;1.47;;;;;;;15.23;43.83;102235.19;5094606;28;20568;-76
2023/05/08 09:30:58;;;;;;;5.40;1.60;;;;;;;15.26;44.73;102245.50;5094387;28;20509;-78
2023/05/08 09:33:26;;;;;;;5.37;1.33;;;;;;;15.22;42.99;102251.84;5093962;28;20539;-77
2023/05/08 09:35:55;;;;;;;4.97;1.27;;;;;;;15.28;42.84;102245.22;5094355;28;20804;-77
2023/05/08 09:38:35;;;;;;;7.33;1.50;;;;;;;15.23;43.07;102240.63;5093773;28;20428;-76
2023/05/08 09:41:09;;;;;;;5.53;1.37;;;;;;;15.30;44.10;102241.06;5093886;28;20439;-77
2023/05/08 09:43:36;;;;;;;8.43;1.97;;;;;;;15.33;45.01;102243.22;5094490;28;20567;-78
2023/05/08 09:46:23;;;;;;;4.80;1.10;;;;;;;15.45;42.35;102239.25;5095006;28;20453;-78
2023/05/08 09:48:50;;;;;;;5.10;1.40;;;;;;;15.39;42.43;102247.50;5095070;28;20650;-78
2023/05/08 09:51:18;;;;;;;6.10;1.77;;;;;;;15.43;44.37;102238.75;5095220;28;20472;-78
2023/05/08 09:53:45;;;;;;;6.17;1.50;;;;;;;15.56;42.76;102240.75;5094930;28;20547;-78
2023/05/08 09:56:12;;;;;;;4.90;1.53;;;;;;;15.64;44.39;102246.41;5094799;28;20531;-77
2023/05/08 09:58:39;;;;;;;5.90;1.57;;;;;;;15.71;43.69;102237.03;5094340;28;20473;-78
2023/05/08 10:01:06;;;;;;;6.83;1.30;;;;;;;15.79;43.51;102234.44;5095507;28;20440;-78
2023/05/08 10:03:48;;;;;;;6.10;1.87;;;;;;;15.82;42.87;102231.13;5094992;28;20509;-78
2023/05/08 10:06:16;;;;;;;5.30;1.57;;;;;;;15.97;45.20;102232.00;5095052;28;20497;-78
2023/05/08 10:08:45;;;;;;;6.03;1.60;;;;;;;16.10;44.05;102237.50;5094117;28;20825;-77
2023/05/08 10:11:16;;;;;;;8.40;1.70;;;;;;;16.25;42.96;102239.22;5095598;28;20440;-77
2023/05/08 10:13:43;;;;;;;5.43;1.70;;;;;;;16.34;42.90;102236.59;5095715;28;20535;-80
2023/05/08 10:16:14;;;;;;;7.23;1.90;;;;;;;16.39;42.52;102226.38;5095206;28;20535;-78
2023/05/08 10:18:45;;;;;;;5.53;1.50;;;;;;;16.48;44.28;102233.91;5094990;28;20882;-79
2023/05/08 10:21:13;;;;;;;6.37;1.83;;;;;;;16.49;43.96;102235.53;5098999;28;20943;-78
2023/05/08 10:23:41;;;;;;;5.77;1.53;;;;;;;16.56;42.52;102241.44;5098643;28;21047;-79
2023/05/08 10:26:12;;;;;;;5.07;1.93;;;;;;;16.58;41.92;102234.53;5099437;28;20449;-79
2023/05/08 10:28:43;;;;;;;5.10;1.40;;;;;;;16.67;42.16;102228.38;5099308;28;20921;-78
2023/05/08 10:31:12;;;;;;;5.07;1.37;;;;;;;16.83;40.66;102216.88;5098425;28;20436;-78
2023/05/08 10:33:41;;;;;;;6.60;2.17;;;;;;;16.96;42.48;102222.66;5099907;28;21030;-80
2023/05/08 10:36:09;;;;;;;5.13;1.50;;;;;;;17.06;45.20;102208.75;5100770;28;20450;-79
2023/05/08 10:38:37;;;;;;;6.10;1.73;;;;;;;17.25;41.05;102214.09;5099968;28;20539;-77
2023/05/08 10:41:04;;;;;;;5.60;1.60;;;;;;;17.47;44.44;102214.16;5099417;28;20520;-79
2023/05/08 10:43:33;;;;;;;5.50;1.50;;;;;;;17.61;42.49;102203.97;5099665;28;20528;-79
2023/05/08 10:46:09;;;;;;;7.27;2.07;;;;;;;17.78;42.52;102205.28;5098995;28;20472;-78
2023/05/08 10:48:42;;;;;;;10.30;1.20;;;;;;;17.96;41.16;102206.22;5097765;28;20522;-74
2023/05/08 10:51:18;;;;;;;5.00;1.43;;;;;;;18.19;41.59;102205.09;5097185;28;20412;-74
2023/05/08 10:53:52;;;;;;;4.60;1.20;;;;;;;18.29;39.13;102198.56;5097203;28;20517;-77
2023/05/08 10:56:26;;;;;;;4.60;1.27;;;;;;;18.28;37.06;102197.75;5097190;28;20440;-75
2023/05/08 10:58:57;;;;;;;5.50;1.83;;;;;;;18.26;39.48;102197.25;5097147;28;20429;-76
2023/05/08 11:01:25;;;;;;;4.70;1.10;;;;;;;18.37;39.42;102187.66;5096657;28;20945;-77
2023/05/08 11:03:53;;;;;;;9.60;1.70;;;;;;;18.49;40.28;102191.72;5096952;28;20523;-75
2023/05/08 11:06:45;;;;;;;5.03;1.10;;;;;;;18.69;38.78;102201.34;5096914;28;20523;-76
2023/05/08 11:09:18;;;;;;;5.20;1.47;;;;;;;18.84;39.36;102193.53;5096532;28;20989;-76
2023/05/08 11:11:54;;;;;;;5.87;1.50;;;;;;;19.11;39.12;102202.66;5096697;28;20494;-75
2023/05/08 11:14:23;;;;;;;5.50;1.30;;;;;;;19.68;38.38;102199.03;5096303;28;21053;-75
2023/05/08 11:17:07;;;;;;;5.93;1.50;;;;;;;20.33;36.65;102189.75;5096627;28;20478;-75
2023/05/08 11:19:35;;;;;;;7.00;2.30;;;;;;;21.14;35.45;102197.03;5096173;28;20447;-75
2023/05/08 11:22:23;;;;;;;4.83;1.17;;;;;;;21.96;34.51;102191.91;5096528;28;20452;-76
2023/05/08 11:24:56;;;;;;;5.87;1.30;;;;;;;22.39;34.25;102193.41;5096404;28;20793;-76
2023/05/08 11:28:04;;;;;;;4.70;1.20;;;;;;;22.70;33.04;102186.53;5096495;28;20921;-76
2023/05/08 11:30:40;;;;;;;4.93;1.10;;;;;;;23.09;33.27;102193.34;5090200;28;20484;-75
2023/05/08 11:33:30;;;;;;;5.67;1.70;;;;;;;23.71;31.11;102189.31;5095985;28;20915;-75
2023/05/08 11:35:58;;;;;;;4.53;1.00;;;;;;;23.84;30.38;102190.09;5096510;28;20440;-76
2023/05/08 11:38:30;;;;;;;4.90;1.17;;;;;;;23.92;31.07;102195.47;5095935;28;20512;-75
2023/05/08 11:41:01;;;;;;;5.53;0.90;;;;;;;23.99;30.02;102188.50;5096329;28;20452;-76